sensor_id;sensor_type;location;lat;lon;timestamp;P1;durP1;ratioP1;P2;durP2;ratioP2
15595;SDS011;7898;48.658;9.068;2024-01-07T00:00:30;17.70;;;10.40;;
15595;SDS011;7898;48.658;9.068;2024-01-07T00:02:57;17.30;;;10.93;;
15595;SDS011;7898;48.658;9.068;2024-01-07T00:05:24;17.13;;;10.63;;
15595;SDS011;7898;48.658;9.068;2024-01-07T00:07:51;15.97;;;9.93;;
15595;SDS011;7898;48.658;9.068;2024-01-07T00:10:18;15.20;;;9.53;;
15595;SDS011;7898;48.658;9.068;2024-01-07T00:12:48;15.83;;;10.33;;
15595;SDS011;7898;48.658;9.068;2024-01-07T00:15:17;14.23;;;9.50;;
15595;SDS011;7898;48.658;9.068;2024-01-07T00:17:43;17.97;;;10.77;;
15595;SDS011;7898;48.658;9.068;2024-01-07T00:20:10;16.93;;;10.00;;
15595;SDS011;7898;48.658;9.068;2024-01-07T00:22:37;15.43;;;10.17;;
15595;SDS011;7898;48.658;9.068;2024-01-07T00:25:06;17.50;;;10.37;;
15595;SDS011;7898;48.658;9.068;2024-01-07T00:27:33;16.27;;;9.40;;
15595;SDS011;7898;48.658;9.068;2024-01-07T00:30:00;17.33;;;10.40;;
15595;SDS011;7898;48.658;9.068;2024-01-07T00:32:27;18.37;;;10.53;;
15595;SDS011;7898;48.658;9.068;2024-01-07T00:34:54;16.60;;;9.77;;
15595;SDS011;7898;48.658;9.068;2024-01-07T00:37:20;16.03;;;10.20;;
15595;SDS011;7898;48.658;9.068;2024-01-07T00:39:47;15.07;;;9.63;;
15595;SDS011;7898;48.658;9.068;2024-01-07T00:42:15;15.07;;;9.47;;
15595;SDS011;7898;48.658;9.068;2024-01-07T00:44:42;16.13;;;9.80;;
15595;SDS011;7898;48.658;9.068;2024-01-07T00:47:09;16.73;;;9.87;;
15595;SDS011;7898;48.658;9.068;2024-01-07T00:49:36;14.23;;;8.97;;
15595;SDS011;7898;48.658;9.068;2024-01-07T00:52:05;14.93;;;8.87;;
15595;SDS011;7898;48.658;9.068;2024-01-07T00:54:32;15.60;;;9.73;;
15595;SDS011;7898;48.658;9.068;2024-01-07T00:56:58;16.77;;;10.13;;
15595;SDS011;7898;48.658;9.068;2024-01-07T00:59:28;15.37;;;10.33;;
15595;SDS011;7898;48.658;9.068;2024-01-07T01:01:55;14.77;;;8.40;;
15595;SDS011;7898;48.658;9.068;2024-01-07T01:04:22;15.40;;;9.67;;
15595;SDS011;7898;48.658;9.068;2024-01-07T01:06:49;16.03;;;10.10;;
15595;SDS011;7898;48.658;9.068;2024-01-07T01:09:16;15.93;;;9.47;;
15595;SDS011;7898;48.658;9.068;2024-01-07T01:11:43;15.63;;;9.87;;
15595;SDS011;7898;48.658;9.068;2024-01-07T01:14:14;14.50;;;10.07;;
15595;SDS011;7898;48.658;9.068;2024-01-07T01:16:43;17.37;;;11.20;;
15595;SDS011;7898;48.658;9.068;2024-01-07T01:19:09;16.07;;;10.67;;
15595;SDS011;7898;48.658;9.068;2024-01-07T01:21:36;17.63;;;10.63;;
15595;SDS011;7898;48.658;9.068;2024-01-07T01:24:03;16.40;;;10.43;;
15595;SDS011;7898;48.658;9.068;2024-01-07T01:26:30;14.13;;;9.60;;
15595;SDS011;7898;48.658;9.068;2024-01-07T01:28:57;15.13;;;9.57;;
15595;SDS011;7898;48.658;9.068;2024-01-07T01:31:24;14.83;;;9.27;;
15595;SDS011;7898;48.658;9.068;2024-01-07T01:33:52;15.43;;;9.50;;
15595;SDS011;7898;48.658;9.068;2024-01-07T01:36:19;15.17;;;9.40;;
15595;SDS011;7898;48.658;9.068;2024-01-07T01:38:46;14.77;;;9.60;;
15595;SDS011;7898;48.658;9.068;2024-01-07T01:41:13;15.60;;;9.90;;
15595;SDS011;7898;48.658;9.068;2024-01-07T01:43:40;15.27;;;9.67;;
15595;SDS011;7898;48.658;9.068;2024-01-07T01:46:07;15.27;;;9.47;;
15595;SDS011;7898;48.658;9.068;2024-01-07T01:48:35;15.73;;;10.03;;
15595;SDS011;7898;48.658;9.068;2024-01-07T01:51:03;19.03;;;9.80;;
15595;SDS011;7898;48.658;9.068;2024-01-07T01:53:30;17.57;;;9.60;;
15595;SDS011;7898;48.658;9.068;2024-01-07T01:55:59;17.37;;;10.33;;
15595;SDS011;7898;48.658;9.068;2024-01-07T01:58:28;17.97;;;9.40;;
15595;SDS011;7898;48.658;9.068;2024-01-07T02:00:56;17.70;;;10.90;;
15595;SDS011;7898;48.658;9.068;2024-01-07T02:03:23;18.63;;;10.47;;
15595;SDS011;7898;48.658;9.068;2024-01-07T02:05:49;18.60;;;10.87;;
15595;SDS011;7898;48.658;9.068;2024-01-07T02:08:18;18.60;;;10.67;;
15595;SDS011;7898;48.658;9.068;2024-01-07T02:10:45;21.53;;;11.07;;
15595;SDS011;7898;48.658;9.068;2024-01-07T02:13:12;20.67;;;10.93;;
15595;SDS011;7898;48.658;9.068;2024-01-07T02:15:39;18.93;;;11.10;;
15595;SDS011;7898;48.658;9.068;2024-01-07T02:18:06;20.97;;;10.40;;
15595;SDS011;7898;48.658;9.068;2024-01-07T02:20:33;18.53;;;10.40;;
15595;SDS011;7898;48.658;9.068;2024-01-07T02:23:00;24.80;;;10.57;;
15595;SDS011;7898;48.658;9.068;2024-01-07T02:25:29;24.33;;;11.83;;
15595;SDS011;7898;48.658;9.068;2024-01-07T02:28:00;25.53;;;12.03;;
15595;SDS011;7898;48.658;9.068;2024-01-07T02:30:27;19.80;;;10.90;;
15595;SDS011;7898;48.658;9.068;2024-01-07T02:32:54;22.77;;;11.93;;
15595;SDS011;7898;48.658;9.068;2024-01-07T02:35:20;27.60;;;12.07;;
15595;SDS011;7898;48.658;9.068;2024-01-07T02:37:47;21.90;;;11.80;;
15595;SDS011;7898;48.658;9.068;2024-01-07T02:40:14;20.67;;;11.47;;
15595;SDS011;7898;48.658;9.068;2024-01-07T02:42:42;21.83;;;12.00;;
15595;SDS011;7898;48.658;9.068;2024-01-07T02:45:09;20.00;;;11.33;;
15595;SDS011;7898;48.658;9.068;2024-01-07T02:47:36;20.37;;;11.20;;
15595;SDS011;7898;48.658;9.068;2024-01-07T02:50:03;22.90;;;12.13;;
15595;SDS011;7898;48.658;9.068;2024-01-07T02:52:30;20.23;;;11.13;;
15595;SDS011;7898;48.658;9.068;2024-01-07T02:54:58;25.00;;;12.57;;
15595;SDS011;7898;48.658;9.068;2024-01-07T02:57:26;19.73;;;10.10;;
15595;SDS011;7898;48.658;9.068;2024-01-07T02:59:55;20.17;;;11.63;;
15595;SDS011;7898;48.658;9.068;2024-01-07T03:02:21;24.30;;;12.20;;
15595;SDS011;7898;48.658;9.068;2024-01-07T03:04:48;21.60;;;12.00;;
15595;SDS011;7898;48.658;9.068;2024-01-07T03:07:15;19.30;;;11.17;;
15595;SDS011;7898;48.658;9.068;2024-01-07T03:09:42;20.33;;;12.57;;
15595;SDS011;7898;48.658;9.068;2024-01-07T03:12:09;19.60;;;11.30;;
15595;SDS011;7898;48.658;9.068;2024-01-07T03:14:36;21.33;;;11.23;;
15595;SDS011;7898;48.658;9.068;2024-01-07T03:17:04;21.27;;;10.97;;
15595;SDS011;7898;48.658;9.068;2024-01-07T03:19:31;20.77;;;11.13;;
15595;SDS011;7898;48.658;9.068;2024-01-07T03:21:58;24.33;;;11.10;;
15595;SDS011;7898;48.658;9.068;2024-01-07T03:24:25;19.30;;;11.03;;
15595;SDS011;7898;48.658;9.068;2024-01-07T03:26:52;18.80;;;11.30;;
15595;SDS011;7898;48.658;9.068;2024-01-07T03:29:19;23.90;;;12.20;;
15595;SDS011;7898;48.658;9.068;2024-01-07T03:31:45;21.17;;;12.23;;
15595;SDS011;7898;48.658;9.068;2024-01-07T03:34:14;19.80;;;11.47;;
15595;SDS011;7898;48.658;9.068;2024-01-07T03:36:41;22.30;;;11.73;;
15595;SDS011;7898;48.658;9.068;2024-01-07T03:39:07;17.90;;;10.77;;
15595;SDS011;7898;48.658;9.068;2024-01-07T03:41:34;19.47;;;12.00;;
15595;SDS011;7898;48.658;9.068;2024-01-07T03:44:01;21.50;;;12.30;;
15595;SDS011;7898;48.658;9.068;2024-01-07T03:46:28;24.67;;;13.07;;
15595;SDS011;7898;48.658;9.068;2024-01-07T03:48:55;23.27;;;13.27;;
15595;SDS011;7898;48.658;9.068;2024-01-07T03:51:24;24.30;;;14.13;;
15595;SDS011;7898;48.658;9.068;2024-01-07T03:53:51;19.77;;;12.57;;
15595;SDS011;7898;48.658;9.068;2024-01-07T03:56:18;22.20;;;12.90;;
15595;SDS011;7898;48.658;9.068;2024-01-07T03:58:44;24.73;;;13.73;;
15595;SDS011;7898;48.658;9.068;2024-01-07T04:01:15;21.13;;;12.93;;
15595;SDS011;7898;48.658;9.068;2024-01-07T04:03:42;22.80;;;12.57;;
15595;SDS011;7898;48.658;9.068;2024-01-07T04:06:09;22.70;;;13.10;;
15595;SDS011;7898;48.658;9.068;2024-01-07T04:08:37;18.67;;;11.30;;
15595;SDS011;7898;48.658;9.068;2024-01-07T04:11:04;21.53;;;11.70;;
15595;SDS011;7898;48.658;9.068;2024-01-07T04:13:31;20.57;;;12.33;;
15595;SDS011;7898;48.658;9.068;2024-01-07T04:15:58;19.10;;;11.93;;
15595;SDS011;7898;48.658;9.068;2024-01-07T04:18:25;18.97;;;11.93;;
15595;SDS011;7898;48.658;9.068;2024-01-07T04:20:52;18.63;;;11.43;;
15595;SDS011;7898;48.658;9.068;2024-01-07T04:23:18;19.27;;;11.57;;
15595;SDS011;7898;48.658;9.068;2024-01-07T04:25:47;17.90;;;11.13;;
15595;SDS011;7898;48.658;9.068;2024-01-07T04:28:13;17.00;;;10.63;;
15595;SDS011;7898;48.658;9.068;2024-01-07T04:30:40;18.83;;;10.70;;
15595;SDS011;7898;48.658;9.068;2024-01-07T04:33:07;19.90;;;11.77;;
15595;SDS011;7898;48.658;9.068;2024-01-07T04:35:34;22.00;;;12.53;;
15595;SDS011;7898;48.658;9.068;2024-01-07T04:38:01;17.20;;;11.03;;
15595;SDS011;7898;48.658;9.068;2024-01-07T04:40:28;17.20;;;10.80;;
15595;SDS011;7898;48.658;9.068;2024-01-07T04:42:56;18.47;;;12.17;;
15595;SDS011;7898;48.658;9.068;2024-01-07T04:45:23;21.20;;;12.33;;
15595;SDS011;7898;48.658;9.068;2024-01-07T04:47:50;21.80;;;12.87;;
15595;SDS011;7898;48.658;9.068;2024-01-07T04:50:17;18.37;;;12.07;;
15595;SDS011;7898;48.658;9.068;2024-01-07T04:52:44;23.77;;;12.57;;
15595;SDS011;7898;48.658;9.068;2024-01-07T04:55:12;20.33;;;12.93;;
15595;SDS011;7898;48.658;9.068;2024-01-07T04:57:39;21.63;;;12.87;;
15595;SDS011;7898;48.658;9.068;2024-01-07T05:00:07;21.40;;;12.37;;
15595;SDS011;7898;48.658;9.068;2024-01-07T05:02:35;23.07;;;12.37;;
15595;SDS011;7898;48.658;9.068;2024-01-07T05:05:02;19.63;;;12.20;;
15595;SDS011;7898;48.658;9.068;2024-01-07T05:07:30;21.47;;;12.90;;
15595;SDS011;7898;48.658;9.068;2024-01-07T05:09:56;23.20;;;12.50;;
15595;SDS011;7898;48.658;9.068;2024-01-07T05:12:23;17.87;;;11.60;;
15595;SDS011;7898;48.658;9.068;2024-01-07T05:14:51;18.17;;;11.87;;
15595;SDS011;7898;48.658;9.068;2024-01-07T05:17:19;20.03;;;11.13;;
15595;SDS011;7898;48.658;9.068;2024-01-07T05:19:46;18.77;;;11.50;;
15595;SDS011;7898;48.658;9.068;2024-01-07T05:22:13;20.50;;;12.00;;
15595;SDS011;7898;48.658;9.068;2024-01-07T05:24:38;18.00;;;11.37;;
15595;SDS011;7898;48.658;9.068;2024-01-07T05:27:05;17.37;;;11.13;;
15595;SDS011;7898;48.658;9.068;2024-01-07T05:29:33;20.87;;;11.00;;
15595;SDS011;7898;48.658;9.068;2024-01-07T05:32:00;15.10;;;10.43;;
15595;SDS011;7898;48.658;9.068;2024-01-07T05:34:29;18.83;;;10.60;;
15595;SDS011;7898;48.658;9.068;2024-01-07T05:36:56;18.43;;;11.33;;
15595;SDS011;7898;48.658;9.068;2024-01-07T05:39:23;15.77;;;10.70;;
15595;SDS011;7898;48.658;9.068;2024-01-07T05:41:50;19.43;;;10.93;;
15595;SDS011;7898;48.658;9.068;2024-01-07T05:44:16;16.37;;;10.73;;
15595;SDS011;7898;48.658;9.068;2024-01-07T05:46:43;16.60;;;11.40;;
15595;SDS011;7898;48.658;9.068;2024-01-07T05:49:10;15.50;;;9.73;;
15595;SDS011;7898;48.658;9.068;2024-01-07T05:51:39;16.90;;;10.23;;
15595;SDS011;7898;48.658;9.068;2024-01-07T05:54:06;15.07;;;9.53;;
15595;SDS011;7898;48.658;9.068;2024-01-07T05:56:37;15.60;;;8.87;;
15595;SDS011;7898;48.658;9.068;2024-01-07T05:59:05;16.67;;;10.63;;
15595;SDS011;7898;48.658;9.068;2024-01-07T06:01:32;14.57;;;9.23;;
15595;SDS011;7898;48.658;9.068;2024-01-07T06:03:59;15.30;;;10.67;;
15595;SDS011;7898;48.658;9.068;2024-01-07T06:06:26;17.13;;;10.30;;
15595;SDS011;7898;48.658;9.068;2024-01-07T06:08:54;15.50;;;10.10;;
15595;SDS011;7898;48.658;9.068;2024-01-07T06:11:21;14.10;;;9.47;;
15595;SDS011;7898;48.658;9.068;2024-01-07T06:13:48;18.23;;;9.73;;
15595;SDS011;7898;48.658;9.068;2024-01-07T06:16:15;16.60;;;10.47;;
15595;SDS011;7898;48.658;9.068;2024-01-07T06:18:42;17.27;;;9.83;;
15595;SDS011;7898;48.658;9.068;2024-01-07T06:21:09;18.30;;;10.90;;
15595;SDS011;7898;48.658;9.068;2024-01-07T06:23:36;16.47;;;10.37;;
15595;SDS011;7898;48.658;9.068;2024-01-07T06:26:04;15.73;;;9.97;;
15595;SDS011;7898;48.658;9.068;2024-01-07T06:28:31;18.67;;;10.77;;
15595;SDS011;7898;48.658;9.068;2024-01-07T06:30:58;15.77;;;10.53;;
15595;SDS011;7898;48.658;9.068;2024-01-07T06:33:25;16.07;;;9.70;;
15595;SDS011;7898;48.658;9.068;2024-01-07T06:35:52;16.30;;;11.37;;
15595;SDS011;7898;48.658;9.068;2024-01-07T06:38:19;15.83;;;10.80;;
15595;SDS011;7898;48.658;9.068;2024-01-07T06:40:45;15.90;;;10.77;;
15595;SDS011;7898;48.658;9.068;2024-01-07T06:43:14;18.43;;;11.70;;
15595;SDS011;7898;48.658;9.068;2024-01-07T06:45:41;19.93;;;11.93;;
15595;SDS011;7898;48.658;9.068;2024-01-07T06:48:08;17.47;;;12.13;;
15595;SDS011;7898;48.658;9.068;2024-01-07T06:50:35;15.73;;;11.83;;
15595;SDS011;7898;48.658;9.068;2024-01-07T06:53:02;19.23;;;11.80;;
15595;SDS011;7898;48.658;9.068;2024-01-07T06:55:29;16.77;;;11.60;;
15595;SDS011;7898;48.658;9.068;2024-01-07T06:57:56;18.17;;;10.97;;
15595;SDS011;7898;48.658;9.068;2024-01-07T07:00:24;18.20;;;11.53;;
15595;SDS011;7898;48.658;9.068;2024-01-07T07:02:51;17.00;;;10.27;;
15595;SDS011;7898;48.658;9.068;2024-01-07T07:05:18;16.30;;;11.10;;
15595;SDS011;7898;48.658;9.068;2024-01-07T07:07:45;17.47;;;11.23;;
15595;SDS011;7898;48.658;9.068;2024-01-07T07:10:12;18.67;;;11.07;;
15595;SDS011;7898;48.658;9.068;2024-01-07T07:12:39;21.10;;;11.77;;
15595;SDS011;7898;48.658;9.068;2024-01-07T07:15:10;19.77;;;11.13;;
15595;SDS011;7898;48.658;9.068;2024-01-07T07:17:39;17.30;;;11.80;;
15595;SDS011;7898;48.658;9.068;2024-01-07T07:20:06;18.03;;;11.33;;
15595;SDS011;7898;48.658;9.068;2024-01-07T07:22:34;18.60;;;12.80;;
15595;SDS011;7898;48.658;9.068;2024-01-07T07:25:01;17.57;;;11.80;;
15595;SDS011;7898;48.658;9.068;2024-01-07T07:27:28;20.83;;;12.47;;
15595;SDS011;7898;48.658;9.068;2024-01-07T07:29:55;17.20;;;12.10;;
15595;SDS011;7898;48.658;9.068;2024-01-07T07:32:22;17.57;;;12.00;;
15595;SDS011;7898;48.658;9.068;2024-01-07T07:34:50;18.67;;;12.13;;
15595;SDS011;7898;48.658;9.068;2024-01-07T07:37:17;20.33;;;12.40;;
15595;SDS011;7898;48.658;9.068;2024-01-07T07:39:44;17.40;;;11.27;;
15595;SDS011;7898;48.658;9.068;2024-01-07T07:42:11;17.00;;;11.40;;
15595;SDS011;7898;48.658;9.068;2024-01-07T07:44:38;19.37;;;11.23;;
15595;SDS011;7898;48.658;9.068;2024-01-07T07:47:05;16.23;;;11.40;;
15595;SDS011;7898;48.658;9.068;2024-01-07T07:49:32;17.20;;;11.53;;
15595;SDS011;7898;48.658;9.068;2024-01-07T07:52:02;21.15;;;15.60;;
15595;SDS011;7898;48.658;9.068;2024-01-07T07:54:29;17.50;;;11.27;;
15595;SDS011;7898;48.658;9.068;2024-01-07T07:56:58;14.57;;;10.13;;
15595;SDS011;7898;48.658;9.068;2024-01-07T07:59:24;16.87;;;10.97;;
15595;SDS011;7898;48.658;9.068;2024-01-07T08:01:51;13.03;;;9.50;;
15595;SDS011;7898;48.658;9.068;2024-01-07T08:04:18;14.60;;;9.33;;
15595;SDS011;7898;48.658;9.068;2024-01-07T08:06:45;18.00;;;10.97;;
15595;SDS011;7898;48.658;9.068;2024-01-07T08:09:13;17.60;;;10.27;;
15595;SDS011;7898;48.658;9.068;2024-01-07T08:11:40;14.97;;;9.60;;
15595;SDS011;7898;48.658;9.068;2024-01-07T08:14:06;15.23;;;9.53;;
15595;SDS011;7898;48.658;9.068;2024-01-07T08:16:34;14.87;;;10.07;;
15595;SDS011;7898;48.658;9.068;2024-01-07T08:19:02;13.53;;;9.40;;
15595;SDS011;7898;48.658;9.068;2024-01-07T08:21:29;15.77;;;9.40;;
15595;SDS011;7898;48.658;9.068;2024-01-07T08:23:55;16.33;;;9.70;;
15595;SDS011;7898;48.658;9.068;2024-01-07T08:26:24;12.87;;;9.03;;
15595;SDS011;7898;48.658;9.068;2024-01-07T08:28:50;13.30;;;8.30;;
15595;SDS011;7898;48.658;9.068;2024-01-07T08:31:17;14.50;;;9.57;;
15595;SDS011;7898;48.658;9.068;2024-01-07T08:33:44;12.57;;;8.73;;
15595;SDS011;7898;48.658;9.068;2024-01-07T08:36:11;13.37;;;8.53;;
15595;SDS011;7898;48.658;9.068;2024-01-07T08:38:38;13.37;;;8.83;;
15595;SDS011;7898;48.658;9.068;2024-01-07T08:41:05;12.93;;;8.50;;
15595;SDS011;7898;48.658;9.068;2024-01-07T08:43:34;13.03;;;7.93;;
15595;SDS011;7898;48.658;9.068;2024-01-07T08:46:02;11.60;;;8.03;;
15595;SDS011;7898;48.658;9.068;2024-01-07T08:48:30;15.27;;;9.97;;
15595;SDS011;7898;48.658;9.068;2024-01-07T08:50:57;13.73;;;8.40;;
15595;SDS011;7898;48.658;9.068;2024-01-07T08:53:24;14.50;;;8.27;;
15595;SDS011;7898;48.658;9.068;2024-01-07T08:55:51;12.93;;;7.93;;
15595;SDS011;7898;48.658;9.068;2024-01-07T08:58:18;13.50;;;8.23;;
15595;SDS011;7898;48.658;9.068;2024-01-07T09:00:46;14.20;;;8.47;;
15595;SDS011;7898;48.658;9.068;2024-01-07T09:03:13;13.23;;;8.93;;
15595;SDS011;7898;48.658;9.068;2024-01-07T09:05:40;12.93;;;8.33;;
15595;SDS011;7898;48.658;9.068;2024-01-07T09:08:07;13.70;;;8.93;;
15595;SDS011;7898;48.658;9.068;2024-01-07T09:10:34;13.40;;;7.77;;
15595;SDS011;7898;48.658;9.068;2024-01-07T09:13:02;14.13;;;8.60;;
15595;SDS011;7898;48.658;9.068;2024-01-07T09:15:29;12.57;;;8.37;;
15595;SDS011;7898;48.658;9.068;2024-01-07T09:17:57;12.10;;;8.03;;
15595;SDS011;7898;48.658;9.068;2024-01-07T09:20:24;13.80;;;8.67;;
15595;SDS011;7898;48.658;9.068;2024-01-07T09:22:51;15.10;;;9.40;;
15595;SDS011;7898;48.658;9.068;2024-01-07T09:25:18;11.87;;;8.27;;
15595;SDS011;7898;48.658;9.068;2024-01-07T09:27:45;14.87;;;8.67;;
15595;SDS011;7898;48.658;9.068;2024-01-07T09:30:12;13.53;;;8.40;;
15595;SDS011;7898;48.658;9.068;2024-01-07T09:32:40;13.10;;;8.90;;
15595;SDS011;7898;48.658;9.068;2024-01-07T09:35:09;16.53;;;8.23;;
15595;SDS011;7898;48.658;9.068;2024-01-07T09:37:36;14.00;;;10.33;;
15595;SDS011;7898;48.658;9.068;2024-01-07T09:40:03;12.47;;;8.00;;
15595;SDS011;7898;48.658;9.068;2024-01-07T09:42:31;10.70;;;7.23;;
15595;SDS011;7898;48.658;9.068;2024-01-07T09:44:58;10.23;;;6.80;;
15595;SDS011;7898;48.658;9.068;2024-01-07T09:47:28;10.30;;;6.90;;
15595;SDS011;7898;48.658;9.068;2024-01-07T09:49:56;8.60;;;5.93;;
15595;SDS011;7898;48.658;9.068;2024-01-07T09:52:24;7.13;;;5.50;;
15595;SDS011;7898;48.658;9.068;2024-01-07T09:54:55;9.37;;;5.80;;
15595;SDS011;7898;48.658;9.068;2024-01-07T09:57:24;9.20;;;5.43;;
15595;SDS011;7898;48.658;9.068;2024-01-07T09:59:52;7.10;;;4.73;;
15595;SDS011;7898;48.658;9.068;2024-01-07T10:02:19;8.67;;;4.97;;
15595;SDS011;7898;48.658;9.068;2024-01-07T10:04:48;7.43;;;4.53;;
15595;SDS011;7898;48.658;9.068;2024-01-07T10:07:15;8.93;;;5.17;;
15595;SDS011;7898;48.658;9.068;2024-01-07T10:09:44;8.33;;;5.70;;
15595;SDS011;7898;48.658;9.068;2024-01-07T10:12:11;6.30;;;4.67;;
15595;SDS011;7898;48.658;9.068;2024-01-07T10:14:38;6.87;;;4.23;;
15595;SDS011;7898;48.658;9.068;2024-01-07T10:17:13;7.30;;;4.87;;
15595;SDS011;7898;48.658;9.068;2024-01-07T10:19:43;8.00;;;4.80;;
15595;SDS011;7898;48.658;9.068;2024-01-07T10:22:11;6.80;;;4.77;;
15595;SDS011;7898;48.658;9.068;2024-01-07T10:24:39;6.70;;;4.33;;
15595;SDS011;7898;48.658;9.068;2024-01-07T10:27:08;6.60;;;4.57;;
15595;SDS011;7898;48.658;9.068;2024-01-07T10:29:36;6.33;;;4.50;;
15595;SDS011;7898;48.658;9.068;2024-01-07T10:32:04;7.57;;;5.07;;
15595;SDS011;7898;48.658;9.068;2024-01-07T10:34:31;10.57;;;6.77;;
15595;SDS011;7898;48.658;9.068;2024-01-07T10:37:00;9.40;;;5.80;;
15595;SDS011;7898;48.658;9.068;2024-01-07T10:39:28;9.27;;;7.13;;
15595;SDS011;7898;48.658;9.068;2024-01-07T10:41:55;14.20;;;10.13;;
15595;SDS011;7898;48.658;9.068;2024-01-07T10:44:26;17.77;;;11.80;;
15595;SDS011;7898;48.658;9.068;2024-01-07T10:46:55;12.20;;;8.43;;
15595;SDS011;7898;48.658;9.068;2024-01-07T10:49:23;18.13;;;11.87;;
15595;SDS011;7898;48.658;9.068;2024-01-07T10:51:55;12.70;;;8.40;;
15595;SDS011;7898;48.658;9.068;2024-01-07T10:54:29;14.00;;;9.33;;
15595;SDS011;7898;48.658;9.068;2024-01-07T10:56:58;11.93;;;8.43;;
15595;SDS011;7898;48.658;9.068;2024-01-07T10:59:32;9.33;;;6.80;;
15595;SDS011;7898;48.658;9.068;2024-01-07T11:02:00;10.80;;;6.97;;
15595;SDS011;7898;48.658;9.068;2024-01-07T11:04:29;13.20;;;9.77;;
15595;SDS011;7898;48.658;9.068;2024-01-07T11:07:05;11.93;;;7.83;;
15595;SDS011;7898;48.658;9.068;2024-01-07T11:09:44;10.40;;;7.03;;
15595;SDS011;7898;48.658;9.068;2024-01-07T11:12:20;8.83;;;6.40;;
15595;SDS011;7898;48.658;9.068;2024-01-07T11:14:48;10.00;;;6.57;;
15595;SDS011;7898;48.658;9.068;2024-01-07T11:17:39;7.93;;;5.87;;
15595;SDS011;7898;48.658;9.068;2024-01-07T11:20:11;11.67;;;8.30;;
15595;SDS011;7898;48.658;9.068;2024-01-07T11:22:40;9.17;;;6.27;;
15595;SDS011;7898;48.658;9.068;2024-01-07T11:27:56;9.93;;;5.77;;
15595;SDS011;7898;48.658;9.068;2024-01-07T11:30:25;9.00;;;6.10;;
15595;SDS011;7898;48.658;9.068;2024-01-07T11:32:58;10.97;;;6.60;;
15595;SDS011;7898;48.658;9.068;2024-01-07T11:38:23;10.70;;;6.60;;
15595;SDS011;7898;48.658;9.068;2024-01-07T11:40:50;11.57;;;7.50;;
15595;SDS011;7898;48.658;9.068;2024-01-07T11:43:17;11.30;;;8.17;;
15595;SDS011;7898;48.658;9.068;2024-01-07T11:45:46;10.93;;;7.43;;
15595;SDS011;7898;48.658;9.068;2024-01-07T11:48:13;14.30;;;8.07;;
15595;SDS011;7898;48.658;9.068;2024-01-07T11:50:41;10.27;;;7.33;;
15595;SDS011;7898;48.658;9.068;2024-01-07T11:53:08;10.53;;;7.27;;
15595;SDS011;7898;48.658;9.068;2024-01-07T11:55:35;10.50;;;7.43;;
15595;SDS011;7898;48.658;9.068;2024-01-07T11:58:02;13.43;;;9.00;;
15595;SDS011;7898;48.658;9.068;2024-01-07T12:00:30;11.03;;;7.77;;
15595;SDS011;7898;48.658;9.068;2024-01-07T12:03:00;10.67;;;7.47;;
15595;SDS011;7898;48.658;9.068;2024-01-07T12:05:27;9.73;;;7.07;;
15595;SDS011;7898;48.658;9.068;2024-01-07T12:07:54;9.97;;;6.93;;
15595;SDS011;7898;48.658;9.068;2024-01-07T12:10:22;10.87;;;7.23;;
15595;SDS011;7898;48.658;9.068;2024-01-07T12:12:49;10.87;;;7.70;;
15595;SDS011;7898;48.658;9.068;2024-01-07T12:15:17;11.27;;;7.23;;
15595;SDS011;7898;48.658;9.068;2024-01-07T12:17:48;16.93;;;10.60;;
15595;SDS011;7898;48.658;9.068;2024-01-07T12:20:23;17.37;;;10.57;;
15595;SDS011;7898;48.658;9.068;2024-01-07T12:22:51;12.07;;;7.80;;
15595;SDS011;7898;48.658;9.068;2024-01-07T12:25:20;8.97;;;6.37;;
15595;SDS011;7898;48.658;9.068;2024-01-07T12:27:49;12.10;;;7.70;;
15595;SDS011;7898;48.658;9.068;2024-01-07T12:30:18;10.30;;;6.70;;
15595;SDS011;7898;48.658;9.068;2024-01-07T12:32:51;12.20;;;7.40;;
15595;SDS011;7898;48.658;9.068;2024-01-07T12:35:18;11.73;;;8.13;;
15595;SDS011;7898;48.658;9.068;2024-01-07T12:37:47;9.87;;;6.23;;
15595;SDS011;7898;48.658;9.068;2024-01-07T12:40:14;8.53;;;6.47;;
15595;SDS011;7898;48.658;9.068;2024-01-07T12:42:41;9.97;;;6.67;;
15595;SDS011;7898;48.658;9.068;2024-01-07T12:45:11;12.07;;;7.57;;
15595;SDS011;7898;48.658;9.068;2024-01-07T12:47:39;9.17;;;6.77;;
15595;SDS011;7898;48.658;9.068;2024-01-07T12:50:07;9.40;;;6.83;;
15595;SDS011;7898;48.658;9.068;2024-01-07T12:52:35;8.97;;;7.07;;
15595;SDS011;7898;48.658;9.068;2024-01-07T12:55:05;11.33;;;7.13;;
15595;SDS011;7898;48.658;9.068;2024-01-07T12:57:33;10.73;;;6.90;;
15595;SDS011;7898;48.658;9.068;2024-01-07T13:00:00;11.60;;;8.03;;
15595;SDS011;7898;48.658;9.068;2024-01-07T13:02:28;17.93;;;10.33;;
15595;SDS011;7898;48.658;9.068;2024-01-07T13:04:55;14.60;;;8.67;;
15595;SDS011;7898;48.658;9.068;2024-01-07T13:07:21;13.07;;;8.20;;
15595;SDS011;7898;48.658;9.068;2024-01-07T13:09:49;12.70;;;7.77;;
15595;SDS011;7898;48.658;9.068;2024-01-07T13:12:18;11.80;;;7.50;;
15595;SDS011;7898;48.658;9.068;2024-01-07T13:14:44;10.03;;;7.13;;
15595;SDS011;7898;48.658;9.068;2024-01-07T13:17:12;11.63;;;8.00;;
15595;SDS011;7898;48.658;9.068;2024-01-07T13:19:39;12.13;;;7.97;;
15595;SDS011;7898;48.658;9.068;2024-01-07T13:22:06;11.30;;;7.97;;
15595;SDS011;7898;48.658;9.068;2024-01-07T13:24:34;11.40;;;7.30;;
15595;SDS011;7898;48.658;9.068;2024-01-07T13:27:01;12.37;;;8.37;;
15595;SDS011;7898;48.658;9.068;2024-01-07T13:29:30;10.50;;;7.37;;
15595;SDS011;7898;48.658;9.068;2024-01-07T13:31:57;13.13;;;8.30;;
15595;SDS011;7898;48.658;9.068;2024-01-07T13:34:24;11.33;;;7.83;;
15595;SDS011;7898;48.658;9.068;2024-01-07T13:36:51;11.60;;;7.43;;
15595;SDS011;7898;48.658;9.068;2024-01-07T13:39:17;13.87;;;7.90;;
15595;SDS011;7898;48.658;9.068;2024-01-07T13:41:46;9.87;;;7.30;;
15595;SDS011;7898;48.658;9.068;2024-01-07T13:44:13;11.80;;;8.07;;
15595;SDS011;7898;48.658;9.068;2024-01-07T13:46:45;13.70;;;8.07;;
15595;SDS011;7898;48.658;9.068;2024-01-07T13:49:12;11.93;;;7.70;;
15595;SDS011;7898;48.658;9.068;2024-01-07T13:51:39;13.27;;;9.20;;
15595;SDS011;7898;48.658;9.068;2024-01-07T13:54:06;13.30;;;9.13;;
15595;SDS011;7898;48.658;9.068;2024-01-07T13:56:35;15.43;;;9.73;;
15595;SDS011;7898;48.658;9.068;2024-01-07T13:59:03;15.30;;;10.07;;
15595;SDS011;7898;48.658;9.068;2024-01-07T14:01:30;11.57;;;8.67;;
15595;SDS011;7898;48.658;9.068;2024-01-07T14:03:59;14.80;;;9.17;;
15595;SDS011;7898;48.658;9.068;2024-01-07T14:06:26;14.33;;;9.50;;
15595;SDS011;7898;48.658;9.068;2024-01-07T14:08:53;13.20;;;8.33;;
15595;SDS011;7898;48.658;9.068;2024-01-07T14:11:20;15.90;;;10.00;;
15595;SDS011;7898;48.658;9.068;2024-01-07T14:13:47;12.13;;;8.50;;
15595;SDS011;7898;48.658;9.068;2024-01-07T14:16:14;13.00;;;9.30;;
15595;SDS011;7898;48.658;9.068;2024-01-07T14:18:41;15.70;;;10.13;;
15595;SDS011;7898;48.658;9.068;2024-01-07T14:21:09;11.33;;;7.43;;
15595;SDS011;7898;48.658;9.068;2024-01-07T14:23:36;16.83;;;10.37;;
15595;SDS011;7898;48.658;9.068;2024-01-07T14:26:03;14.67;;;9.40;;
15595;SDS011;7898;48.658;9.068;2024-01-07T14:28:30;13.87;;;9.53;;
15595;SDS011;7898;48.658;9.068;2024-01-07T14:30:57;16.90;;;9.37;;
15595;SDS011;7898;48.658;9.068;2024-01-07T14:33:24;12.30;;;8.50;;
15595;SDS011;7898;48.658;9.068;2024-01-07T14:35:51;16.40;;;9.57;;
15595;SDS011;7898;48.658;9.068;2024-01-07T14:38:19;13.83;;;8.93;;
15595;SDS011;7898;48.658;9.068;2024-01-07T14:40:47;15.73;;;8.73;;
15595;SDS011;7898;48.658;9.068;2024-01-07T14:43:16;14.97;;;9.30;;
15595;SDS011;7898;48.658;9.068;2024-01-07T14:45:43;14.67;;;9.37;;
15595;SDS011;7898;48.658;9.068;2024-01-07T14:48:09;16.53;;;9.37;;
15595;SDS011;7898;48.658;9.068;2024-01-07T14:50:35;23.40;;;12.73;;